createdAt,value
2022-09-15T00:01:00.908Z,6.03
2022-09-15T00:03:28.463Z,13.50
2022-09-15T00:05:55.155Z,10.63
2022-09-15T00:08:22.638Z,11.20
2022-09-15T00:10:53.526Z,10.98
2022-09-15T00:13:21.403Z,7.93
2022-09-15T00:15:48.314Z,7.28
2022-09-15T00:18:15.026Z,7.35
2022-09-15T00:20:43.285Z,6.05
2022-09-15T00:23:11.373Z,8.52
2022-09-15T00:25:50.956Z,10.18
2022-09-15T00:28:19.649Z,10.80
2022-09-15T00:30:49.754Z,5.18
2022-09-15T00:33:17.519Z,8.60
2022-09-15T00:35:46.391Z,6.65
2022-09-15T00:38:14.421Z,6.90
2022-09-15T00:40:50.140Z,9.30
2022-09-15T00:43:19.206Z,6.30
2022-09-15T00:45:45.946Z,8.90
2022-09-15T00:48:18.659Z,9.98
2022-09-15T00:50:51.903Z,12.48
2022-09-15T00:53:20.770Z,5.85
2022-09-15T00:55:49.742Z,9.10
2022-09-15T00:58:25.665Z,6.68
2022-09-15T01:00:58.153Z,6.18
2022-09-15T01:03:26.477Z,6.13
2022-09-15T01:06:02.097Z,9.43
2022-09-15T01:08:34.891Z,6.60
2022-09-15T01:11:02.726Z,10.32
2022-09-15T01:13:29.805Z,9.38
2022-09-15T01:16:30.863Z,9.38
2022-09-15T01:19:18.572Z,7.97
2022-09-15T01:22:17.371Z,7.68
2022-09-15T01:24:59.595Z,9.73
2022-09-15T01:27:58.136Z,9.63
2022-09-15T01:30:25.265Z,9.65
2022-09-15T01:33:25.860Z,11.23
2022-09-15T01:36:12.583Z,10.55
2022-09-15T01:39:01.056Z,7.53
2022-09-15T01:41:29.669Z,6.10
2022-09-15T01:43:58.862Z,8.30
2022-09-15T01:46:29.634Z,7.25
2022-09-15T01:49:00.456Z,5.43
2022-09-15T01:51:27.955Z,10.65
2022-09-15T01:53:56.446Z,8.65
2022-09-15T01:56:22.890Z,10.40
2022-09-15T01:58:51.249Z,8.10
2022-09-15T02:02:07.933Z,5.25
2022-09-15T02:04:48.526Z,4.90
2022-09-15T02:07:20.706Z,6.60
2022-09-15T02:09:58.946Z,7.22
2022-09-15T02:12:52.023Z,10.45
2022-09-15T02:15:33.377Z,6.75
2022-09-15T02:18:02.635Z,7.03
2022-09-15T02:20:48.503Z,8.13
2022-09-15T02:23:25.190Z,7.57
2022-09-15T02:25:57.035Z,7.25
2022-09-15T02:28:30.104Z,10.82
2022-09-15T02:30:59.183Z,7.85
2022-09-15T02:33:32.224Z,7.65
2022-09-15T02:35:59.794Z,6.03
2022-09-15T02:38:30.920Z,7.82
2022-09-15T02:40:57.386Z,7.68
2022-09-15T02:43:24.190Z,6.25
2022-09-15T02:45:50.837Z,7.22
2022-09-15T02:48:17.747Z,10.02
2022-09-15T02:50:44.293Z,7.07
2022-09-15T02:53:10.746Z,8.15
2022-09-15T02:55:37.233Z,6.00
2022-09-15T02:58:03.879Z,6.20
2022-09-15T03:00:31.188Z,7.10
2022-09-15T03:02:58.360Z,8.20
2022-09-15T03:05:28.530Z,7.63
2022-09-15T03:07:55.846Z,7.70
2022-09-15T03:10:24.075Z,9.05
2022-09-15T03:12:52.999Z,6.15
2022-09-15T03:15:22.020Z,9.82
2022-09-15T03:17:48.855Z,7.47
2022-09-15T03:20:18.617Z,4.55
2022-09-15T03:22:45.122Z,4.88
2022-09-15T03:25:11.989Z,5.65
2022-09-15T03:27:38.568Z,6.65
2022-09-15T03:30:06.715Z,7.38
2022-09-15T03:32:33.239Z,4.93
2022-09-15T03:35:00.087Z,4.68
2022-09-15T03:37:26.991Z,5.10
2022-09-15T03:39:53.573Z,4.68
2022-09-15T03:42:20.330Z,9.02
2022-09-15T03:44:46.986Z,6.10
2022-09-15T03:47:13.560Z,5.57
2022-09-15T03:49:40.056Z,5.35
2022-09-15T03:52:06.538Z,4.90
2022-09-15T03:54:32.958Z,8.70
2022-09-15T03:56:59.458Z,9.15
2022-09-15T03:59:25.950Z,6.35
2022-09-15T04:01:52.507Z,10.02
2022-09-15T04:04:19.168Z,6.45
2022-09-15T04:06:45.882Z,8.90
2022-09-15T04:09:12.389Z,5.80
2022-09-15T04:11:40.444Z,9.52
2022-09-15T04:14:06.960Z,5.97
2022-09-15T04:16:33.995Z,8.10
2022-09-15T04:19:00.847Z,8.68
2022-09-15T04:21:27.336Z,6.38
2022-09-15T04:23:54.674Z,8.45
2022-09-15T04:26:35.350Z,9.05
2022-09-15T04:29:04.855Z,11.25
2022-09-15T04:31:33.150Z,8.82
2022-09-15T04:33:59.884Z,7.75
2022-09-15T04:36:28.504Z,7.10
2022-09-15T04:38:55.796Z,6.57
2022-09-15T04:41:22.802Z,8.20
2022-09-15T04:43:49.793Z,9.38
2022-09-15T04:46:17.019Z,9.43
2022-09-15T04:48:45.975Z,11.00
2022-09-15T04:51:16.004Z,10.55
2022-09-15T04:53:42.596Z,8.23
2022-09-15T04:56:12.030Z,10.80
2022-09-15T04:58:40.356Z,9.50
2022-09-15T05:01:08.921Z,12.93
2022-09-15T05:03:37.551Z,9.60
2022-09-15T05:06:05.958Z,9.95
2022-09-15T05:08:32.487Z,8.65
2022-09-15T05:11:05.316Z,12.15
2022-09-15T05:13:31.873Z,19.27
2022-09-15T05:16:05.143Z,14.32
2022-09-15T05:18:31.921Z,10.50
2022-09-15T05:21:00.147Z,15.55
2022-09-15T05:23:26.762Z,9.15
2022-09-15T05:25:58.109Z,16.75
2022-09-15T05:28:25.168Z,11.63
2022-09-15T05:30:52.968Z,10.38
2022-09-15T05:33:23.671Z,11.77
2022-09-15T05:35:55.290Z,13.37
2022-09-15T05:40:48.899Z,16.80
2022-09-15T05:43:16.551Z,12.15
2022-09-15T05:45:43.722Z,15.85
2022-09-15T05:48:13.119Z,12.90
2022-09-15T05:50:48.345Z,8.30
2022-09-15T05:53:15.579Z,7.95
2022-09-15T05:55:42.108Z,9.77
2022-09-15T05:58:08.670Z,10.65
2022-09-15T06:00:35.871Z,15.90
2022-09-15T06:03:02.810Z,15.68
2022-09-15T06:05:29.431Z,9.90
2022-09-15T06:07:56.777Z,17.88
2022-09-15T06:10:25.019Z,8.23
2022-09-15T06:12:55.324Z,10.88
2022-09-15T06:15:23.275Z,14.68
2022-09-15T06:17:49.855Z,16.50
2022-09-15T06:20:17.528Z,11.38
2022-09-15T06:22:47.473Z,25.30
2022-09-15T06:25:14.357Z,12.50
2022-09-15T06:27:42.018Z,14.63
2022-09-15T06:30:09.822Z,13.00
2022-09-15T06:32:36.864Z,17.58
2022-09-15T06:35:07.145Z,16.45
2022-09-15T06:37:34.711Z,12.52
2022-09-15T06:40:01.862Z,19.95
2022-09-15T06:42:28.515Z,11.85
2022-09-15T06:44:55.030Z,13.20
2022-09-15T06:47:21.479Z,16.30
2022-09-15T06:49:48.060Z,18.30
2022-09-15T06:52:14.524Z,14.43
2022-09-15T06:54:40.956Z,23.70
2022-09-15T06:57:08.601Z,13.13
2022-09-15T06:59:35.056Z,15.43
2022-09-15T07:02:05.097Z,16.65
2022-09-15T07:04:35.849Z,19.17
2022-09-15T07:07:02.348Z,16.20
2022-09-15T07:09:28.821Z,15.10
2022-09-15T07:11:55.258Z,12.93
2022-09-15T07:14:21.771Z,11.88
2022-09-15T07:16:48.380Z,14.32
2022-09-15T07:19:14.892Z,9.65
2022-09-15T07:21:41.362Z,15.57
2022-09-15T07:24:08.319Z,12.98
2022-09-15T07:26:34.923Z,15.38
2022-09-15T07:29:04.621Z,10.43
2022-09-15T07:31:33.540Z,11.73
2022-09-15T07:34:01.069Z,13.00
2022-09-15T07:36:28.121Z,12.20
2022-09-15T07:38:54.579Z,10.38
2022-09-15T07:41:23.941Z,13.13
2022-09-15T07:43:56.120Z,20.05
2022-09-15T07:46:24.279Z,13.82
2022-09-15T07:48:54.600Z,16.25
2022-09-15T07:51:21.092Z,13.82
2022-09-15T07:53:48.286Z,13.15
2022-09-15T07:56:18.363Z,10.55
2022-09-15T07:58:46.017Z,12.05
2022-09-15T08:01:14.807Z,9.50
2022-09-15T08:03:46.355Z,11.65
2022-09-15T08:08:41.115Z,14.30
2022-09-15T08:11:09.271Z,9.90
2022-09-15T08:13:35.990Z,18.33
2022-09-15T08:16:07.923Z,14.13
2022-09-15T08:18:35.236Z,8.63
2022-09-15T08:21:13.686Z,12.18
2022-09-15T08:23:40.676Z,10.45
2022-09-15T08:26:13.604Z,14.90
2022-09-15T08:28:40.784Z,13.40
2022-09-15T08:31:09.123Z,13.35
2022-09-15T08:33:36.566Z,15.55
2022-09-15T08:36:06.219Z,8.73
2022-09-15T08:38:33.595Z,19.85
2022-09-15T08:41:06.471Z,12.10
2022-09-15T08:43:42.602Z,12.93
2022-09-15T08:46:16.003Z,12.07
2022-09-15T08:48:50.003Z,11.45
2022-09-15T08:51:24.497Z,12.25
2022-09-15T08:53:59.686Z,17.73
2022-09-15T08:56:28.763Z,13.18
2022-09-15T08:58:55.357Z,14.02
2022-09-15T09:01:56.960Z,14.02
2022-09-15T09:04:34.661Z,13.68
2022-09-15T09:07:28.203Z,17.00
2022-09-15T09:10:11.341Z,16.48
2022-09-15T09:12:46.653Z,14.10
2022-09-15T09:15:21.418Z,14.88
2022-09-15T09:17:53.479Z,14.90
2022-09-15T09:20:44.633Z,17.27
2022-09-15T09:23:15.291Z,23.17
2022-09-15T09:25:43.764Z,20.17
2022-09-15T09:28:30.014Z,15.43
2022-09-15T09:31:01.677Z,28.73
2022-09-15T09:33:34.683Z,42.90
2022-09-15T09:36:02.247Z,52.40
2022-09-15T09:38:35.058Z,46.53
2022-09-15T09:41:05.063Z,51.75
2022-09-15T09:43:32.756Z,59.38
2022-09-15T09:45:59.848Z,41.33
2022-09-15T09:48:28.704Z,46.60
2022-09-15T09:50:55.774Z,60.83
2022-09-15T09:53:33.207Z,53.35
2022-09-15T09:56:24.399Z,41.47
2022-09-15T09:58:54.200Z,52.65
2022-09-15T10:01:23.537Z,64.47
2022-09-15T10:03:50.068Z,50.40
2022-09-15T10:06:20.611Z,50.00
2022-09-15T10:08:58.779Z,56.30
2022-09-15T10:11:46.610Z,61.97
2022-09-15T10:14:37.566Z,73.40
2022-09-15T10:17:19.711Z,59.67
2022-09-15T10:20:01.257Z,75.75
2022-09-15T10:22:27.735Z,72.53
2022-09-15T10:24:54.545Z,71.93
2022-09-15T10:27:31.992Z,60.25
2022-09-15T10:30:31.000Z,71.70
2022-09-15T10:33:18.193Z,83.57
2022-09-15T10:35:45.228Z,85.60
2022-09-15T10:38:14.032Z,76.90
2022-09-15T10:41:11.191Z,63.05
2022-09-15T10:43:59.068Z,84.22
2022-09-15T10:46:42.980Z,80.22
2022-09-15T10:49:18.436Z,86.70
2022-09-15T10:51:59.927Z,83.63
2022-09-15T11:00:05.229Z,90.10
2022-09-15T11:02:51.112Z,90.38
2022-09-15T11:05:22.719Z,78.85
2022-09-15T11:08:17.179Z,61.97
2022-09-15T11:10:51.680Z,65.63
2022-09-15T11:13:40.395Z,61.55
2022-09-15T11:16:34.063Z,62.42
2022-09-15T11:19:21.508Z,65.25
2022-09-15T11:21:53.985Z,60.67
2022-09-15T11:24:46.812Z,66.47
2022-09-15T11:27:23.512Z,51.65
2022-09-15T11:30:15.595Z,49.38
2022-09-15T11:32:54.297Z,55.90
2022-09-15T11:35:33.330Z,50.42
2022-09-15T11:38:21.079Z,47.65
2022-09-15T11:41:02.693Z,51.05
2022-09-15T11:43:34.016Z,45.80
2022-09-15T11:48:40.867Z,45.83
2022-09-15T11:51:08.215Z,53.72
2022-09-15T11:53:48.342Z,35.35
2022-09-15T11:56:35.010Z,45.95
2022-09-15T11:59:22.997Z,51.25
2022-09-15T12:02:02.006Z,47.85
2022-09-15T12:04:32.141Z,39.80
2022-09-15T12:07:12.267Z,78.80
2022-09-15T12:09:41.043Z,45.28
2022-09-15T12:12:15.501Z,51.65
2022-09-15T12:14:44.855Z,47.08
2022-09-15T12:17:29.779Z,41.60
2022-09-15T12:20:06.556Z,43.40
2022-09-15T12:23:04.442Z,48.85
2022-09-15T12:25:42.085Z,40.80
2022-09-15T12:28:27.018Z,41.85
2022-09-15T12:31:30.824Z,54.03
2022-09-15T12:33:58.535Z,64.53
2022-09-15T12:36:42.942Z,53.22
2022-09-15T12:39:30.132Z,49.22
2022-09-15T12:42:25.403Z,45.78
2022-09-15T12:45:19.906Z,47.40
2022-09-15T12:47:54.693Z,45.80
2022-09-15T12:50:31.620Z,46.33
2022-09-15T12:53:14.343Z,48.95
2022-09-15T12:56:02.361Z,31.38
2022-09-15T12:58:41.052Z,49.08
2022-09-15T13:01:19.632Z,36.28
2022-09-15T13:03:46.360Z,46.72
2022-09-15T13:06:26.478Z,37.97
2022-09-15T13:09:02.175Z,32.45
2022-09-15T13:11:37.400Z,34.35
2022-09-15T13:14:04.116Z,37.63
2022-09-15T13:16:37.514Z,35.60
2022-09-15T13:19:11.924Z,31.63
2022-09-15T13:21:42.129Z,36.00
2022-09-15T13:24:19.255Z,36.13
2022-09-15T13:26:51.327Z,35.42
2022-09-15T13:29:20.270Z,48.50
2022-09-15T13:32:15.451Z,32.72
2022-09-15T13:35:09.569Z,57.58
2022-09-15T13:38:20.569Z,57.95
2022-09-15T13:41:02.087Z,44.20
2022-09-15T13:43:53.286Z,33.95
2022-09-15T13:46:57.045Z,38.53
2022-09-15T13:49:58.904Z,36.25
2022-09-15T13:55:26.322Z,45.45
2022-09-15T14:01:05.823Z,51.17
2022-09-15T14:03:53.474Z,38.83
2022-09-15T14:06:24.831Z,32.08
2022-09-15T14:08:56.268Z,32.85
2022-09-15T14:11:30.334Z,40.33
2022-09-15T14:13:58.463Z,34.88
2022-09-15T14:16:33.919Z,33.88
2022-09-15T14:19:01.905Z,38.95
2022-09-15T14:21:34.544Z,33.55
2022-09-15T14:24:17.153Z,39.55
2022-09-15T14:26:43.689Z,41.03
2022-09-15T14:29:19.934Z,40.75
2022-09-15T14:31:48.189Z,36.80
2022-09-15T14:34:29.303Z,37.60
2022-09-15T14:37:06.752Z,50.90
2022-09-15T14:39:37.742Z,43.75
2022-09-15T14:42:32.408Z,42.40
2022-09-15T14:48:03.693Z,40.20
2022-09-15T14:50:33.100Z,39.72
2022-09-15T14:53:06.526Z,41.17
2022-09-15T14:55:45.982Z,39.22
2022-09-15T14:58:23.152Z,36.90
2022-09-15T15:01:02.159Z,40.35
2022-09-15T15:03:38.118Z,39.25
2022-09-15T15:09:01.797Z,38.35
2022-09-15T15:11:30.232Z,41.17
2022-09-15T15:13:57.497Z,40.95
2022-09-15T15:16:27.060Z,40.72
2022-09-15T15:18:56.175Z,34.10
2022-09-15T15:21:41.664Z,45.17
2022-09-15T15:24:16.544Z,43.88
2022-09-15T15:26:45.300Z,40.78
2022-09-15T15:29:39.671Z,38.58
2022-09-15T15:32:12.029Z,41.72
2022-09-15T15:34:38.851Z,29.70
2022-09-15T15:37:18.294Z,38.95
2022-09-15T15:39:46.464Z,46.83
2022-09-15T15:42:15.499Z,37.80
2022-09-15T15:45:13.463Z,38.60
2022-09-15T15:47:39.918Z,42.72
2022-09-15T15:50:14.422Z,38.03
2022-09-15T15:52:42.169Z,36.78
2022-09-15T15:55:12.739Z,31.25
2022-09-15T15:57:42.055Z,29.40
2022-09-15T16:00:23.838Z,34.35
2022-09-15T16:02:51.940Z,28.52
2022-09-15T16:05:20.560Z,40.92
2022-09-15T16:07:49.489Z,34.97
2022-09-15T16:10:20.961Z,38.05
2022-09-15T16:15:19.908Z,36.03
2022-09-15T16:17:47.363Z,32.22
2022-09-15T16:20:19.738Z,30.45
2022-09-15T16:22:46.335Z,29.95
2022-09-15T16:25:23.276Z,29.45
2022-09-15T16:27:49.762Z,27.88
2022-09-15T16:30:16.262Z,29.27
2022-09-15T16:32:42.882Z,29.23
2022-09-15T16:35:26.433Z,30.05
2022-09-15T16:37:52.964Z,23.73
2022-09-15T16:40:19.472Z,31.15
2022-09-15T16:42:47.365Z,21.75
2022-09-15T16:45:40.545Z,22.77
2022-09-15T16:48:07.928Z,21.10
2022-09-15T16:50:35.063Z,22.08
2022-09-15T16:53:01.643Z,33.75
2022-09-15T16:55:35.799Z,19.70
2022-09-15T16:58:04.170Z,25.02
2022-09-15T17:00:33.365Z,24.67
2022-09-15T17:02:59.927Z,19.92
2022-09-15T17:05:29.922Z,24.48
2022-09-15T17:07:56.556Z,26.77
2022-09-15T17:10:23.355Z,26.10
2022-09-15T17:12:50.181Z,18.95
2022-09-15T17:15:27.118Z,22.48
2022-09-15T17:17:54.570Z,24.10
2022-09-15T17:20:22.499Z,18.45
2022-09-15T17:22:49.803Z,23.40
2022-09-15T17:25:38.528Z,23.75
2022-09-15T17:28:05.227Z,17.08
2022-09-15T17:30:32.544Z,21.65
2022-09-15T17:33:07.376Z,18.92
2022-09-15T17:35:35.890Z,19.48
2022-09-15T17:38:04.272Z,24.80
2022-09-15T17:40:31.520Z,18.05
2022-09-15T17:42:58.325Z,21.52
2022-09-15T17:45:35.531Z,19.92
2022-09-15T17:48:03.746Z,23.10
2022-09-15T17:50:32.814Z,20.83
2022-09-15T17:53:00.126Z,20.35
2022-09-15T17:55:28.536Z,24.67
2022-09-15T17:57:57.132Z,22.90
2022-09-15T18:00:25.723Z,25.55
2022-09-15T18:02:54.738Z,21.13
2022-09-15T18:05:27.274Z,25.48
2022-09-15T18:07:55.450Z,19.00
2022-09-15T18:10:22.463Z,17.70
2022-09-15T18:12:53.555Z,21.38
2022-09-15T18:15:26.042Z,22.90
2022-09-15T18:17:55.498Z,17.90
2022-09-15T18:20:24.960Z,17.45
2022-09-15T18:22:51.936Z,19.25
2022-09-15T18:25:30.857Z,22.55
2022-09-15T18:27:58.659Z,14.05
2022-09-15T18:30:28.511Z,20.83
2022-09-15T18:32:55.653Z,20.02
2022-09-15T18:35:22.810Z,22.30
2022-09-15T18:37:55.162Z,15.10
2022-09-15T18:40:21.815Z,15.85
2022-09-15T18:42:49.068Z,15.32
2022-09-15T18:45:17.889Z,24.33
2022-09-15T18:47:48.763Z,17.23
2022-09-15T18:50:17.160Z,21.80
2022-09-15T18:52:44.197Z,15.75
2022-09-15T18:55:17.866Z,21.33
2022-09-15T18:57:45.027Z,21.17
2022-09-15T19:00:23.947Z,15.50
2022-09-15T19:03:02.345Z,13.45
2022-09-15T19:05:30.027Z,11.95
2022-09-15T19:07:56.732Z,17.00
2022-09-15T19:10:23.592Z,13.02
2022-09-15T19:12:50.066Z,15.40
2022-09-15T19:15:16.645Z,12.80
2022-09-15T19:17:44.317Z,15.57
2022-09-15T19:20:14.207Z,11.73
2022-09-15T19:22:41.482Z,12.35
2022-09-15T19:25:09.673Z,18.73
2022-09-15T19:27:38.150Z,12.30
2022-09-15T19:30:05.750Z,13.18
2022-09-15T19:32:33.098Z,14.30
2022-09-15T19:34:59.528Z,10.60
2022-09-15T19:37:26.028Z,10.60
2022-09-15T19:39:52.621Z,19.98
2022-09-15T19:42:19.171Z,12.20
2022-09-15T19:44:46.050Z,15.13
2022-09-15T19:47:12.515Z,12.32
2022-09-15T19:49:39.024Z,18.27
2022-09-15T19:52:06.497Z,11.60
2022-09-15T19:54:34.526Z,8.65
2022-09-15T19:57:01.488Z,11.10
2022-09-15T19:59:31.271Z,14.57
2022-09-15T20:01:59.108Z,10.02
2022-09-15T20:07:10.016Z,9.38
2022-09-15T20:09:36.481Z,8.70
2022-09-15T20:12:03.588Z,9.90
2022-09-15T20:14:31.362Z,9.48
2022-09-15T20:17:00.987Z,7.53
2022-09-15T20:19:28.072Z,7.20
2022-09-15T20:21:54.456Z,9.10
2022-09-15T20:24:22.189Z,7.65
2022-09-15T20:26:48.705Z,7.63
2022-09-15T20:29:15.831Z,11.23
2022-09-15T20:31:42.564Z,9.68
2022-09-15T20:34:09.093Z,9.10
2022-09-15T20:36:38.398Z,10.35
2022-09-15T20:39:08.786Z,4.72
2022-09-15T20:41:35.299Z,9.20
2022-09-15T20:44:02.060Z,10.90
2022-09-15T20:46:31.562Z,8.43
2022-09-15T20:48:58.002Z,7.10
2022-09-15T20:51:26.844Z,8.18
2022-09-15T20:53:55.990Z,17.08
2022-09-15T20:56:25.551Z,11.02
2022-09-15T20:58:53.914Z,9.43
2022-09-15T21:01:25.729Z,10.73
2022-09-15T21:03:53.410Z,10.07
2022-09-15T21:06:22.146Z,12.38
2022-09-15T21:08:49.691Z,8.13
2022-09-15T21:11:17.916Z,13.20
2022-09-15T21:13:44.586Z,11.35
2022-09-15T21:16:16.880Z,9.05
2022-09-15T21:18:44.659Z,8.25
2022-09-15T21:21:15.019Z,11.23
2022-09-15T21:23:44.963Z,11.80
2022-09-15T21:26:14.799Z,11.93
2022-09-15T21:28:43.431Z,9.75
2022-09-15T21:31:16.096Z,8.48
2022-09-15T21:33:43.559Z,8.20
2022-09-15T21:36:12.595Z,8.10
2022-09-15T21:38:40.583Z,8.23
2022-09-15T21:41:09.779Z,5.45
2022-09-15T21:43:39.272Z,7.03
2022-09-15T21:46:08.504Z,6.47
2022-09-15T21:48:35.895Z,11.55
2022-09-15T21:51:04.200Z,6.95
2022-09-15T21:53:32.437Z,9.48
2022-09-15T21:56:06.783Z,10.45
2022-09-15T21:58:40.295Z,5.28
2022-09-15T22:01:21.096Z,6.97
2022-09-15T22:03:50.981Z,6.78
2022-09-15T22:06:18.584Z,9.30
2022-09-15T22:08:45.325Z,6.25
2022-09-15T22:11:11.792Z,7.43
2022-09-15T22:13:43.624Z,7.20
2022-09-15T22:16:18.438Z,6.85
2022-09-15T22:18:45.801Z,7.03
2022-09-15T22:21:12.650Z,5.28
2022-09-15T22:23:39.998Z,5.38
2022-09-15T22:26:17.799Z,6.20
2022-09-15T22:28:44.823Z,5.30
2022-09-15T22:31:13.562Z,9.60
2022-09-15T22:33:43.451Z,6.72
2022-09-15T22:36:11.693Z,7.53
2022-09-15T22:38:38.672Z,9.23
2022-09-15T22:41:08.978Z,8.68
2022-09-15T22:43:36.293Z,5.65
2022-09-15T22:46:03.091Z,4.85
2022-09-15T22:48:29.808Z,8.02
2022-09-15T22:50:56.419Z,5.25
2022-09-15T22:53:23.501Z,7.68
2022-09-15T22:55:51.478Z,5.15
2022-09-15T22:58:17.985Z,10.07
2022-09-15T23:00:44.617Z,15.15
2022-09-15T23:03:11.816Z,12.55
2022-09-15T23:05:38.593Z,7.10
2022-09-15T23:08:05.177Z,7.35
2022-09-15T23:10:32.753Z,7.00
2022-09-15T23:12:59.707Z,5.45
2022-09-15T23:15:26.386Z,5.97
2022-09-15T23:17:52.870Z,5.60
2022-09-15T23:20:19.309Z,5.38
2022-09-15T23:22:45.724Z,6.25
2022-09-15T23:25:12.180Z,4.88
2022-09-15T23:27:38.638Z,5.90
2022-09-15T23:30:05.466Z,4.68
2022-09-15T23:32:32.029Z,7.43
2022-09-15T23:34:58.479Z,10.52
2022-09-15T23:37:24.984Z,5.05
2022-09-15T23:39:52.342Z,7.90
2022-09-15T23:42:19.179Z,8.15
2022-09-15T23:44:45.820Z,5.82
2022-09-15T23:47:12.293Z,8.52
2022-09-15T23:49:38.738Z,8.80
2022-09-15T23:52:05.151Z,9.50
2022-09-15T23:54:31.658Z,5.63
2022-09-15T23:56:58.149Z,7.93
2022-09-15T23:59:24.748Z,5.85
